createdAt,value
2018-07-26T00:02:08.039Z,51.43
2018-07-26T00:04:37.906Z,51.74
2018-07-26T00:07:07.851Z,51.23
2018-07-26T00:09:37.555Z,52.22
2018-07-26T00:12:07.077Z,52.31
2018-07-26T00:14:37.028Z,51.92
2018-07-26T00:17:06.579Z,53.39
2018-07-26T00:19:36.617Z,52.01
2018-07-26T00:22:07.168Z,52.50
2018-07-26T00:24:37.494Z,52.12
2018-07-26T00:27:07.752Z,52.83
2018-07-26T00:29:37.467Z,52.79
2018-07-26T00:32:07.638Z,52.53
2018-07-26T00:34:37.894Z,52.64
2018-07-26T00:37:07.610Z,52.97
2018-07-26T00:39:37.385Z,52.49
2018-07-26T00:42:07.193Z,52.99
2018-07-26T00:44:36.801Z,52.25
2018-07-26T00:47:06.679Z,52.40
2018-07-26T00:49:36.836Z,52.17
2018-07-26T00:52:07.189Z,52.23
2018-07-26T00:54:37.456Z,53.23
2018-07-26T00:57:07.741Z,53.14
2018-07-26T00:59:37.155Z,53.50
2018-07-26T01:02:06.637Z,53.17
2018-07-26T01:04:36.742Z,53.17
2018-07-26T01:07:06.688Z,53.49
2018-07-26T01:09:37.415Z,53.79
2018-07-26T01:12:09.838Z,54.03
2018-07-26T01:14:39.857Z,53.82
2018-07-26T01:17:09.842Z,54.00
2018-07-26T01:19:39.715Z,54.14
2018-07-26T01:22:09.998Z,54.33
2018-07-26T01:24:39.799Z,53.85
2018-07-26T01:27:09.443Z,54.30
2018-07-26T01:29:39.444Z,54.69
2018-07-26T01:32:09.260Z,54.74
2018-07-26T01:34:39.651Z,54.64
2018-07-26T01:37:09.511Z,54.01
2018-07-26T01:39:39.006Z,54.15
2018-07-26T01:42:08.744Z,54.22
2018-07-26T01:44:38.573Z,53.83
2018-07-26T01:47:08.141Z,54.87
2018-07-26T01:49:37.806Z,54.38
2018-07-26T01:52:07.362Z,54.40
2018-07-26T01:54:38.597Z,54.86
2018-07-26T01:57:08.129Z,55.28
2018-07-26T01:59:38.055Z,54.65
2018-07-26T02:02:07.668Z,54.22
2018-07-26T02:04:37.582Z,54.53
2018-07-26T02:07:07.548Z,55.16
2018-07-26T02:09:37.746Z,54.54
2018-07-26T02:12:07.452Z,55.24
2018-07-26T02:14:37.782Z,55.22
2018-07-26T02:17:08.095Z,54.93
2018-07-26T02:19:37.561Z,55.82
2018-07-26T02:22:08.372Z,55.72
2018-07-26T02:24:37.949Z,55.23
2018-07-26T02:27:07.846Z,56.46
2018-07-26T02:29:38.331Z,56.75
2018-07-26T02:32:08.173Z,56.92
2018-07-26T02:34:38.140Z,57.34
2018-07-26T02:37:08.078Z,57.01
2018-07-26T02:39:38.134Z,57.51
2018-07-26T02:42:08.573Z,57.05
2018-07-26T02:44:38.439Z,56.97
2018-07-26T02:47:08.379Z,57.52
2018-07-26T02:49:38.139Z,57.62
2018-07-26T02:52:07.700Z,56.97
2018-07-26T02:54:37.496Z,57.30
2018-07-26T02:57:07.801Z,57.40
2018-07-26T02:59:38.967Z,57.84
2018-07-26T03:02:09.144Z,57.82
2018-07-26T03:04:39.859Z,57.38
2018-07-26T03:07:10.116Z,57.32
2018-07-26T03:09:39.770Z,57.47
2018-07-26T03:12:10.337Z,57.49
2018-07-26T03:14:43.163Z,57.53
2018-07-26T03:17:14.032Z,58.40
2018-07-26T03:19:45.375Z,58.10
2018-07-26T03:22:15.384Z,57.89
2018-07-26T03:24:46.075Z,58.18
2018-07-26T03:27:16.404Z,58.60
2018-07-26T03:29:46.516Z,58.40
2018-07-26T03:32:16.341Z,58.45
2018-07-26T03:34:46.941Z,58.00
2018-07-26T03:37:16.980Z,58.50
2018-07-26T03:39:47.464Z,58.85
2018-07-26T03:42:17.527Z,59.60
2018-07-26T03:44:47.410Z,60.12
2018-07-26T03:47:17.758Z,59.86
2018-07-26T03:49:48.031Z,59.28
2018-07-26T03:52:18.184Z,59.63
2018-07-26T03:54:47.823Z,58.72
2018-07-26T03:57:18.057Z,58.60
2018-07-26T03:59:47.687Z,58.85
2018-07-26T04:02:17.295Z,58.12
2018-07-26T04:04:47.333Z,59.06
2018-07-26T04:07:17.073Z,58.85
2018-07-26T04:09:47.314Z,57.92
2018-07-26T04:12:18.787Z,58.83
2018-07-26T04:14:48.213Z,58.65
2018-07-26T04:17:17.884Z,57.80
2018-07-26T04:19:47.895Z,58.62
2018-07-26T04:22:17.403Z,58.40
2018-07-26T04:24:47.151Z,58.49
2018-07-26T04:27:16.911Z,58.83
2018-07-26T04:29:46.335Z,58.82
2018-07-26T04:32:16.279Z,58.71
2018-07-26T04:34:46.118Z,58.58
2018-07-26T04:37:16.197Z,59.29
2018-07-26T04:39:46.132Z,59.14
2018-07-26T04:42:16.325Z,59.57
2018-07-26T04:44:46.095Z,58.91
2018-07-26T04:47:15.992Z,58.37
2018-07-26T04:49:46.144Z,58.89
2018-07-26T04:52:15.915Z,58.86
2018-07-26T04:54:46.358Z,57.89
2018-07-26T04:57:16.418Z,57.85
2018-07-26T04:59:46.395Z,58.42
2018-07-26T05:02:15.797Z,58.14
2018-07-26T05:04:46.037Z,58.25
2018-07-26T05:07:15.857Z,58.50
2018-07-26T05:09:45.451Z,58.70
2018-07-26T05:12:15.721Z,58.75
2018-07-26T05:14:45.425Z,58.76
2018-07-26T05:17:15.098Z,58.56
2018-07-26T05:19:45.509Z,58.62
2018-07-26T05:22:15.349Z,58.28
2018-07-26T05:24:44.798Z,58.38
2018-07-26T05:27:16.042Z,58.06
2018-07-26T05:29:45.897Z,57.74
2018-07-26T05:32:16.502Z,58.53
2018-07-26T05:34:46.778Z,57.82
2018-07-26T05:37:17.496Z,58.15
2018-07-26T05:39:47.239Z,57.24
2018-07-26T05:42:17.046Z,58.02
2018-07-26T05:44:46.700Z,57.73
2018-07-26T05:47:16.389Z,57.94
2018-07-26T05:49:46.491Z,57.12
2018-07-26T05:52:16.639Z,57.03
2018-07-26T05:54:46.139Z,57.81
2018-07-26T05:57:16.343Z,56.51
2018-07-26T05:59:46.396Z,55.72
2018-07-26T06:02:15.787Z,56.58
2018-07-26T06:04:45.826Z,56.02
2018-07-26T06:07:16.207Z,55.25
2018-07-26T06:09:46.695Z,55.62
2018-07-26T06:12:16.327Z,55.32
2018-07-26T06:14:46.033Z,54.27
2018-07-26T06:17:16.014Z,53.67
2018-07-26T06:19:45.880Z,53.97
2018-07-26T06:22:15.971Z,53.10
2018-07-26T06:24:45.740Z,53.22
2018-07-26T06:27:15.243Z,51.92
2018-07-26T06:29:45.598Z,51.34
2018-07-26T06:32:15.632Z,51.58
2018-07-26T06:34:45.157Z,50.58
2018-07-26T06:37:16.212Z,50.66
2018-07-26T06:39:46.433Z,49.83
2018-07-26T06:42:19.043Z,49.16
2018-07-26T06:44:48.750Z,49.55
2018-07-26T06:47:19.532Z,48.62
2018-07-26T06:49:49.310Z,48.34
2018-07-26T06:52:18.769Z,48.58
2018-07-26T06:54:48.778Z,48.58
2018-07-26T06:57:18.552Z,48.48
2018-07-26T06:59:48.393Z,47.42
2018-07-26T07:02:19.033Z,47.37
2018-07-26T07:04:48.829Z,46.81
2018-07-26T07:07:18.956Z,45.56
2018-07-26T07:09:48.988Z,45.80
2018-07-26T07:12:19.474Z,44.97
2018-07-26T07:14:49.361Z,44.40
2018-07-26T07:17:19.702Z,44.36
2018-07-26T07:19:49.993Z,44.56
2018-07-26T07:22:19.890Z,43.96
2018-07-26T07:24:49.487Z,43.31
2018-07-26T07:27:20.151Z,43.15
2018-07-26T07:29:49.651Z,42.40
2018-07-26T07:32:20.610Z,42.65
2018-07-26T07:34:52.735Z,42.28
2018-07-26T07:37:22.739Z,42.80
2018-07-26T07:39:53.388Z,42.24
2018-07-26T07:42:23.314Z,42.09
2018-07-26T07:44:53.769Z,41.98
2018-07-26T07:47:24.488Z,42.10
2018-07-26T07:49:56.884Z,41.62
2018-07-26T07:52:26.356Z,41.86
2018-07-26T07:54:56.004Z,41.37
2018-07-26T07:57:26.047Z,41.32
2018-07-26T07:59:57.201Z,41.56
2018-07-26T08:02:28.766Z,40.73
2018-07-26T08:04:58.815Z,41.38
2018-07-26T08:07:29.032Z,39.96
2018-07-26T08:09:59.532Z,39.40
2018-07-26T08:12:29.153Z,38.80
2018-07-26T08:14:59.956Z,39.42
2018-07-26T08:17:29.553Z,39.69
2018-07-26T08:19:59.390Z,38.05
2018-07-26T08:22:29.657Z,39.00
2018-07-26T08:24:59.675Z,39.04
2018-07-26T08:27:30.046Z,38.03
2018-07-26T08:30:00.507Z,39.08
2018-07-26T08:32:33.831Z,38.78
2018-07-26T08:35:05.029Z,37.90
2018-07-26T08:37:36.108Z,37.99
2018-07-26T08:40:07.198Z,38.13
2018-07-26T08:42:37.356Z,38.91
2018-07-26T08:45:07.576Z,39.39
2018-07-26T08:47:37.511Z,39.59
2018-07-26T08:50:07.882Z,38.76
2018-07-26T08:52:38.144Z,38.27
2018-07-26T08:55:09.082Z,37.14
2018-07-26T08:57:40.035Z,37.07
2018-07-26T09:00:10.460Z,36.12
2018-07-26T09:02:40.064Z,35.67
2018-07-26T09:05:10.685Z,35.39
2018-07-26T09:07:40.576Z,36.10
2018-07-26T09:10:11.967Z,36.28
2018-07-26T09:12:42.014Z,37.13
2018-07-26T09:15:12.027Z,36.97
2018-07-26T09:17:42.052Z,35.74
2018-07-26T09:20:11.829Z,36.37
2018-07-26T09:22:42.078Z,37.40
2018-07-26T09:25:12.085Z,35.45
2018-07-26T09:27:42.308Z,35.27
2018-07-26T09:30:12.490Z,35.07
2018-07-26T09:32:42.338Z,35.94
2018-07-26T09:35:13.252Z,35.01
2018-07-26T09:37:44.022Z,34.98
2018-07-26T09:40:13.734Z,34.68
2018-07-26T09:42:44.179Z,34.67
2018-07-26T09:45:13.915Z,34.42
2018-07-26T09:47:43.449Z,34.01
2018-07-26T09:50:13.406Z,34.19
2018-07-26T09:54:07.541Z,33.90
2018-07-26T09:56:37.380Z,32.18
2018-07-26T09:59:06.925Z,31.98
2018-07-26T10:01:38.021Z,32.73
2018-07-26T10:04:08.426Z,32.44
2018-07-26T10:06:39.015Z,31.62
2018-07-26T10:09:11.258Z,32.33
2018-07-26T10:11:40.766Z,33.78
2018-07-26T10:14:10.354Z,33.30
2018-07-26T10:16:39.990Z,31.87
2018-07-26T10:19:09.793Z,30.65
2018-07-26T10:21:39.335Z,31.31
2018-07-26T10:24:09.668Z,31.28
2018-07-26T10:26:39.590Z,32.00
2018-07-26T10:29:09.643Z,31.68
2018-07-26T10:31:39.173Z,30.16
2018-07-26T10:34:08.998Z,30.88
2018-07-26T10:36:39.010Z,30.81
2018-07-26T10:39:10.836Z,31.50
2018-07-26T10:41:41.357Z,30.01
2018-07-26T10:44:11.480Z,31.00
2018-07-26T10:46:41.447Z,31.40
2018-07-26T10:49:12.001Z,30.62
2018-07-26T10:51:42.242Z,31.15
2018-07-26T10:54:12.040Z,31.32
2018-07-26T10:56:41.526Z,30.09
2018-07-26T10:59:11.799Z,30.55
2018-07-26T11:01:41.627Z,30.49
2018-07-26T11:04:12.614Z,30.09
2018-07-26T11:06:42.211Z,30.34
2018-07-26T11:09:12.803Z,30.09
2018-07-26T11:11:42.399Z,30.11
2018-07-26T11:14:12.479Z,30.63
2018-07-26T11:16:42.583Z,30.65
2018-07-26T11:19:12.309Z,30.43
2018-07-26T11:21:41.794Z,30.39
2018-07-26T11:24:11.233Z,30.00
2018-07-26T11:26:40.702Z,30.32
2018-07-26T11:29:11.858Z,29.14
2018-07-26T11:31:41.519Z,29.84
2018-07-26T11:34:10.977Z,30.17
2018-07-26T11:36:40.518Z,29.40
2018-07-26T11:39:11.469Z,28.88
2018-07-26T11:41:40.995Z,29.34
2018-07-26T11:44:10.716Z,29.27
2018-07-26T11:46:40.495Z,28.90
2018-07-26T11:49:10.052Z,29.62
2018-07-26T11:51:39.629Z,27.97
2018-07-26T11:54:10.315Z,29.21
2018-07-26T11:56:40.146Z,28.80
2018-07-26T11:59:10.278Z,28.22
2018-07-26T12:01:40.180Z,28.44
2018-07-26T12:04:09.610Z,28.97
2018-07-26T12:06:39.153Z,28.28
2018-07-26T12:09:10.619Z,27.31
2018-07-26T12:11:40.560Z,28.53
2018-07-26T12:14:11.556Z,27.53
2018-07-26T12:16:41.200Z,27.52
2018-07-26T12:19:10.833Z,26.69
2018-07-26T12:21:40.760Z,25.67
2018-07-26T12:24:10.312Z,26.52
2018-07-26T12:26:39.912Z,26.26
2018-07-26T12:29:09.831Z,26.66
2018-07-26T12:31:40.263Z,26.91
2018-07-26T12:34:10.467Z,26.11
2018-07-26T12:36:40.416Z,26.11
2018-07-26T12:39:12.314Z,26.62
2018-07-26T12:41:41.912Z,25.96
2018-07-26T12:44:11.755Z,25.80
2018-07-26T12:46:41.384Z,25.22
2018-07-26T12:49:11.007Z,25.09
2018-07-26T12:51:40.800Z,25.43
2018-07-26T12:54:11.432Z,24.74
2018-07-26T12:56:41.154Z,24.73
2018-07-26T12:59:11.642Z,24.63
2018-07-26T13:01:41.160Z,24.27
2018-07-26T13:04:11.714Z,24.10
2018-07-26T13:06:41.514Z,24.10
2018-07-26T13:09:11.302Z,25.02
2018-07-26T13:11:41.049Z,25.42
2018-07-26T13:14:11.055Z,22.98
2018-07-26T13:16:41.453Z,22.74
2018-07-26T13:19:11.764Z,22.57
2018-07-26T13:21:42.320Z,23.04
2018-07-26T13:24:11.841Z,22.32
2018-07-26T13:26:41.434Z,22.69
2018-07-26T13:29:11.384Z,22.20
2018-07-26T13:31:41.079Z,21.72
2018-07-26T13:34:11.086Z,21.54
2018-07-26T13:36:40.910Z,22.44
2018-07-26T13:39:14.345Z,21.63
2018-07-26T13:41:44.376Z,22.93
2018-07-26T13:44:15.278Z,22.41
2018-07-26T13:46:45.012Z,21.64
2018-07-26T13:49:15.690Z,22.25
2018-07-26T13:51:46.703Z,21.23
2018-07-26T13:54:17.231Z,20.65
2018-07-26T13:56:46.768Z,20.62
2018-07-26T13:59:17.228Z,20.45
2018-07-26T14:01:46.957Z,21.56
2018-07-26T14:04:16.647Z,19.87
2018-07-26T14:06:46.863Z,19.67
2018-07-26T14:09:17.278Z,19.80
2018-07-26T14:11:48.665Z,20.52
2018-07-26T14:14:19.656Z,19.82
2018-07-26T14:16:49.373Z,20.42
2018-07-26T14:19:21.438Z,20.69
2018-07-26T14:21:55.847Z,19.54
2018-07-26T14:24:29.368Z,19.89
2018-07-26T14:26:59.569Z,19.43
2018-07-26T14:29:35.860Z,19.62
2018-07-26T14:32:08.136Z,19.05
2018-07-26T14:34:45.823Z,18.84
2018-07-26T14:37:23.606Z,19.05
2018-07-26T14:39:57.574Z,19.12
2018-07-26T14:42:27.323Z,19.10
2018-07-26T14:45:02.580Z,19.61
2018-07-26T14:47:34.927Z,20.69
2018-07-26T14:50:09.200Z,20.45
2018-07-26T14:52:52.810Z,19.52
2018-07-26T14:55:47.704Z,21.45
2018-07-26T14:58:19.833Z,19.73
2018-07-26T15:00:56.432Z,21.03
2018-07-26T15:03:27.365Z,20.47
2018-07-26T15:06:05.677Z,19.83
2018-07-26T15:08:48.029Z,20.56
2018-07-26T15:11:19.612Z,19.57
2018-07-26T15:13:49.648Z,20.40
2018-07-26T15:16:19.791Z,19.56
2018-07-26T15:18:50.601Z,19.78
2018-07-26T15:21:20.362Z,20.53
2018-07-26T15:23:50.283Z,19.97
2018-07-26T15:26:23.506Z,20.11
2018-07-26T15:28:53.974Z,19.61
2018-07-26T15:31:34.638Z,19.43
2018-07-26T15:34:05.264Z,19.62
2018-07-26T15:36:35.678Z,19.64
2018-07-26T15:39:07.516Z,19.51
2018-07-26T15:41:43.322Z,19.14
2018-07-26T15:44:17.008Z,20.07
2018-07-26T15:46:47.034Z,19.74
2018-07-26T15:49:18.686Z,20.02
2018-07-26T15:51:50.508Z,21.25
2018-07-26T15:54:26.137Z,19.19
2018-07-26T15:56:57.200Z,18.83
2018-07-26T15:59:26.936Z,19.05
2018-07-26T16:01:56.828Z,19.60
2018-07-26T16:04:26.978Z,19.25
2018-07-26T16:06:57.075Z,18.98
2018-07-26T16:09:28.600Z,19.43
2018-07-26T16:11:58.430Z,19.49
2018-07-26T16:14:28.456Z,19.57
2018-07-26T16:16:58.440Z,19.62
2018-07-26T16:19:31.367Z,19.83
2018-07-26T16:22:03.346Z,19.54
2018-07-26T16:24:41.424Z,19.35
2018-07-26T16:27:11.243Z,19.84
2018-07-26T16:29:41.021Z,19.56
2018-07-26T16:32:11.069Z,18.89
2018-07-26T16:34:41.433Z,18.88
2018-07-26T16:37:11.061Z,19.87
2018-07-26T16:39:40.846Z,18.71
2018-07-26T16:42:10.562Z,18.57
2018-07-26T16:44:42.171Z,19.30
2018-07-26T16:47:14.891Z,19.02
2018-07-26T16:49:44.522Z,20.85
2018-07-26T16:52:15.384Z,18.76
2018-07-26T16:54:45.179Z,18.77
2018-07-26T16:57:15.659Z,18.03
2018-07-26T16:59:45.233Z,18.77
2018-07-26T17:02:15.724Z,18.46
2018-07-26T17:04:46.315Z,18.62
2018-07-26T17:07:19.865Z,18.94
2018-07-26T17:09:50.769Z,18.65
2018-07-26T17:12:22.559Z,19.49
2018-07-26T17:14:54.110Z,18.23
2018-07-26T17:17:24.549Z,17.93
2018-07-26T17:19:54.475Z,18.81
2018-07-26T17:22:25.357Z,18.75
2018-07-26T17:24:56.074Z,18.96
2018-07-26T17:27:26.700Z,19.04
2018-07-26T17:29:56.513Z,19.08
2018-07-26T17:32:26.598Z,18.74
2018-07-26T17:34:56.385Z,18.84
2018-07-26T17:37:26.831Z,19.41
2018-07-26T17:39:57.521Z,18.96
2018-07-26T17:42:27.095Z,19.10
2018-07-26T17:44:57.103Z,19.03
2018-07-26T17:47:26.882Z,20.12
2018-07-26T17:49:58.162Z,20.86
2018-07-26T17:52:29.962Z,19.81
2018-07-26T17:54:59.681Z,20.92
2018-07-26T17:57:29.686Z,21.27
2018-07-26T17:59:59.804Z,21.07
2018-07-26T18:02:30.135Z,21.76
2018-07-26T18:04:59.856Z,22.29
2018-07-26T18:07:31.373Z,21.67
2018-07-26T18:10:02.438Z,22.47
2018-07-26T18:12:32.526Z,23.35
2018-07-26T18:15:05.393Z,22.19
2018-07-26T18:17:36.377Z,23.07
2018-07-26T18:20:07.393Z,24.01
2018-07-26T18:22:37.685Z,23.84
2018-07-26T18:25:07.298Z,23.18
2018-07-26T18:27:37.318Z,23.98
2018-07-26T18:30:08.976Z,23.36
2018-07-26T18:32:41.764Z,24.00
2018-07-26T18:35:13.898Z,24.81
2018-07-26T18:37:43.636Z,24.88
2018-07-26T18:40:15.413Z,25.97
2018-07-26T18:42:48.869Z,26.24
2018-07-26T18:45:20.059Z,26.99
2018-07-26T18:47:50.029Z,26.67
2018-07-26T18:50:19.954Z,27.43
2018-07-26T18:52:49.979Z,27.92
2018-07-26T18:55:24.177Z,27.80
2018-07-26T18:57:55.627Z,28.44
2018-07-26T19:00:25.323Z,28.71
2018-07-26T19:02:57.864Z,28.99
2018-07-26T19:05:27.460Z,29.60
2018-07-26T19:07:57.425Z,28.79
2018-07-26T19:10:27.163Z,29.32
2018-07-26T19:13:00.298Z,30.21
2018-07-26T19:15:29.823Z,29.56
2018-07-26T19:17:59.791Z,29.58
2018-07-26T19:20:29.860Z,30.61
2018-07-26T19:22:59.571Z,30.22
2018-07-26T19:25:34.429Z,29.99
2018-07-26T19:28:04.645Z,30.65
2018-07-26T19:30:36.581Z,30.80
2018-07-26T19:33:08.081Z,30.48
2018-07-26T19:35:37.756Z,31.38
2018-07-26T19:38:08.519Z,31.73
2018-07-26T19:40:39.668Z,31.56
2018-07-26T19:43:10.119Z,31.83
2018-07-26T19:45:40.139Z,32.15
2018-07-26T19:48:11.031Z,32.00
2018-07-26T19:50:40.871Z,32.24
2018-07-26T19:53:11.470Z,32.04
2018-07-26T19:55:41.143Z,32.57
2018-07-26T19:58:11.749Z,32.25
2018-07-26T20:00:41.702Z,32.90
2018-07-26T20:03:13.163Z,33.13
2018-07-26T20:05:42.968Z,33.11
2018-07-26T20:08:12.700Z,33.26
2018-07-26T20:10:42.807Z,32.71
2018-07-26T20:13:13.492Z,33.68
2018-07-26T20:15:44.242Z,32.92
2018-07-26T20:18:15.192Z,34.18
2018-07-26T20:20:45.163Z,34.60
2018-07-26T20:23:15.547Z,33.99
2018-07-26T20:25:47.311Z,34.98
2018-07-26T20:28:17.727Z,35.33
2018-07-26T20:30:49.088Z,34.88
2018-07-26T20:33:20.858Z,35.18
2018-07-26T20:35:57.009Z,35.79
2018-07-26T20:38:28.208Z,36.08
2018-07-26T20:40:59.556Z,36.05
2018-07-26T20:43:29.781Z,36.09
2018-07-26T20:46:02.209Z,36.10
2018-07-26T20:48:33.112Z,36.99
2018-07-26T20:51:03.218Z,36.91
2018-07-26T20:53:33.957Z,36.48
2018-07-26T20:56:05.196Z,36.88
2018-07-26T20:58:35.560Z,37.69
2018-07-26T21:01:17.230Z,38.02
2018-07-26T21:03:49.441Z,37.80
2018-07-26T21:06:25.714Z,37.73
2018-07-26T21:08:58.350Z,38.40
2018-07-26T21:11:32.808Z,38.11
2018-07-26T21:14:04.893Z,37.58
2018-07-26T21:16:46.669Z,38.20
2018-07-26T21:19:19.391Z,38.72
2018-07-26T21:21:50.586Z,38.85
2018-07-26T21:24:25.067Z,38.67
2018-07-26T21:26:56.739Z,39.14
2018-07-26T21:29:27.300Z,39.76
2018-07-26T21:32:01.107Z,39.42
2018-07-26T21:34:32.414Z,39.21
2018-07-26T21:37:07.576Z,39.63
2018-07-26T21:39:38.128Z,39.58
2018-07-26T21:42:10.093Z,39.46
2018-07-26T21:44:41.455Z,39.62
2018-07-26T21:47:14.153Z,40.62
2018-07-26T21:49:44.802Z,41.01
2018-07-26T21:52:15.215Z,40.37
2018-07-26T21:54:45.070Z,40.40
2018-07-26T21:57:28.218Z,41.62
2018-07-26T22:00:04.959Z,41.60
2018-07-26T22:02:36.113Z,41.04
2018-07-26T22:05:08.408Z,41.84
2018-07-26T22:07:38.831Z,41.43
2018-07-26T22:10:10.539Z,41.72
2018-07-26T22:12:46.235Z,41.52
2018-07-26T22:15:17.295Z,41.55
2018-07-26T22:17:47.588Z,41.77
2018-07-26T22:20:17.918Z,42.64
2018-07-26T22:22:47.930Z,41.80
2018-07-26T22:25:17.739Z,42.01
2018-07-26T22:27:48.237Z,42.92
2018-07-26T22:30:18.643Z,42.26
2018-07-26T22:32:48.448Z,43.06
2018-07-26T22:35:18.912Z,42.67
2018-07-26T22:37:49.109Z,43.17
2018-07-26T22:40:20.415Z,42.51
2018-07-26T22:42:51.118Z,42.64
2018-07-26T22:45:21.996Z,43.40
2018-07-26T22:47:52.555Z,42.70
2018-07-26T22:50:22.461Z,43.80
2018-07-26T22:52:53.010Z,43.27
2018-07-26T22:55:23.404Z,43.96
2018-07-26T22:57:58.573Z,44.05
2018-07-26T23:00:31.073Z,43.64
2018-07-26T23:03:01.719Z,43.45
2018-07-26T23:05:31.364Z,44.80
2018-07-26T23:08:01.035Z,43.95
2018-07-26T23:10:32.432Z,43.97
2018-07-26T23:13:02.790Z,44.68
2018-07-26T23:15:32.922Z,43.85
2018-07-26T23:18:03.507Z,44.21
2018-07-26T23:20:34.026Z,45.45
2018-07-26T23:23:04.771Z,45.42
2018-07-26T23:25:35.432Z,45.49
2018-07-26T23:28:06.366Z,45.75
2018-07-26T23:30:36.057Z,45.47
2018-07-26T23:33:07.211Z,45.72
2018-07-26T23:35:37.065Z,45.49
2018-07-26T23:38:08.415Z,44.96
2018-07-26T23:40:39.750Z,45.44
2018-07-26T23:43:11.071Z,46.04
2018-07-26T23:45:42.107Z,46.16
2018-07-26T23:48:14.394Z,46.00
2018-07-26T23:50:44.601Z,45.53
2018-07-26T23:53:14.947Z,46.24
2018-07-26T23:55:45.245Z,45.71
2018-07-26T23:58:16.933Z,45.60
